Danny G — WDD3436 — position and weather

sailwx.info

Track history (hours):
 
Tides and Currents Weather Stations Pressure Air Temp Water Temp Dewpoint Dewpoint Depression Visibility Wind Speed Wind Dir Waves Ship Positions

Danny G

Owner: PACIFIC TUGBOAT SERVICE, INC, LONG BEACH, CA. More information available from US FCC via Universal Licensing System and Coast Guard Vessel Documentation Center.

Last reported at 2018-Feb-01 17:34 UTC. Time now 2018-Feb-24 04:28 UTC.
Position N 33°46' W 118°13'.
Warning: this ship's position is 22 days out of date.

Length 14 m.

Type: Passenger vessel. MMSI: 367131320.

Date/timePositionNaut miles runAvg speedWind from/ knotsBaromVisibWave heightAir tempDewpointWater temp
2018-Feb-01 17:34N 33°46' W 118°13'0 1.1
2018-Feb-01 17:31N 33°46' W 118°13'3 5.5
2018-Feb-01 17:01N 33°43' W 118°13'3 5.5
2018-Feb-01 16:30N 33°46' W 118°13'0 0.0
2018-Feb-01 16:00N 33°46' W 118°13'0 0.0
2018-Feb-01 15:30N 33°46' W 118°13'0 0.0
2018-Feb-01 15:00N 33°46' W 118°13'0 0.0
2018-Feb-01 13:30N 33°46' W 118°13'0 0.0
2018-Feb-01 12:56N 33°46' W 118°13'0 0.0
2018-Feb-01 12:25N 33°46' W 118°13'0 0.0
2018-Feb-01 11:47N 33°46' W 118°13'0 0.0
2018-Feb-01 11:00N 33°46' W 118°13'0 0.0
2018-Feb-01 10:30N 33°46' W 118°13'0 0.0
2018-Feb-01 09:59N 33°46' W 118°13'0 0.0
2018-Feb-01 09:29N 33°46' W 118°13'0 0.0
2018-Feb-01 09:00N 33°46' W 118°13'0 0.0
2018-Feb-01 08:30N 33°46' W 118°13'0 0.0
2018-Feb-01 07:30N 33°46' W 118°13'0 0.0
2018-Feb-01 07:00N 33°46' W 118°13'0 0.0
2018-Feb-01 06:30N 33°46' W 118°13'0 0.0
2018-Feb-01 06:00N 33°46' W 118°13'0 0.0
2018-Feb-01 05:30N 33°46' W 118°13'0 0.0
2018-Feb-01 05:00N 33°46' W 118°13'0 0.0
2018-Feb-01 04:30N 33°46' W 118°13'0 0.0
2018-Feb-01 03:59N 33°46' W 118°13'0 0.0
2018-Feb-01 02:59N 33°46' W 118°13'0 0.0
2018-Feb-01 02:30N 33°46' W 118°13'0 0.0
2018-Feb-01 02:00N 33°46' W 118°13'0 0.0
2018-Feb-01 01:30N 33°46' W 118°13'0 0.0
2018-Feb-01 01:00N 33°46' W 118°13'0 0.0
2018-Feb-01 00:30N 33°46' W 118°13'0 0.0
2018-Feb-01 00:00N 33°46' W 118°13'0 0.0
2018-Jan-31 22:59N 33°46' W 118°13'0 0.0
2018-Jan-31 22:31N 33°46' W 118°13'4 2.7
2018-Jan-31 21:00N 33°44' W 118°09'0 0.1
2018-Jan-31 20:30N 33°44' W 118°09'0 0.1
2018-Jan-31 20:00N 33°44' W 118°09'0 0.1
2018-Jan-31 19:30N 33°44' W 118°09'0 0.2
2018-Jan-31 19:00N 33°44' W 118°09'0 0.2
2018-Jan-31 18:24N 33°44' W 118°09'3 8.2
2018-Jan-31 18:00N 33°44' W 118°13'2 3.8
2018-Jan-31 17:30N 33°46' W 118°13'  
Track history (hours):
 
Tides and Currents Weather Stations Pressure Air Temp Water Temp Dewpoint Dewpoint Depression Visibility Wind Speed Wind Dir Waves Ship Positions

Danny G

Owner: PACIFIC TUGBOAT SERVICE, INC, LONG BEACH, CA. More information available from US FCC via Universal Licensing System and Coast Guard Vessel Documentation Center.

Last reported at 2018-Feb-01 17:34 UTC. Time now 2018-Feb-24 04:28 UTC.
Position N 33°46' W 118°13'.
Warning: this ship's position is 22 days out of date.

Length 14 m.

Type: Passenger vessel. MMSI: 367131320.

Date/timePositionNaut miles runAvg speedWind from/ knotsBaromVisibWave heightAir tempDewpointWater temp
2018-Feb-01 17:34N 33°46' W 118°13'0 1.1
2018-Feb-01 17:31N 33°46' W 118°13'3 5.5
2018-Feb-01 17:01N 33°43' W 118°13'3 5.5
2018-Feb-01 16:30N 33°46' W 118°13'0 0.0
2018-Feb-01 16:00N 33°46' W 118°13'0 0.0
2018-Feb-01 15:30N 33°46' W 118°13'0 0.0
2018-Feb-01 15:00N 33°46' W 118°13'0 0.0
2018-Feb-01 13:30N 33°46' W 118°13'0 0.0
2018-Feb-01 12:56N 33°46' W 118°13'0 0.0
2018-Feb-01 12:25N 33°46' W 118°13'0 0.0
2018-Feb-01 11:47N 33°46' W 118°13'0 0.0
2018-Feb-01 11:00N 33°46' W 118°13'0 0.0
2018-Feb-01 10:30N 33°46' W 118°13'0 0.0
2018-Feb-01 09:59N 33°46' W 118°13'0 0.0
2018-Feb-01 09:29N 33°46' W 118°13'0 0.0
2018-Feb-01 09:00N 33°46' W 118°13'0 0.0
2018-Feb-01 08:30N 33°46' W 118°13'0 0.0
2018-Feb-01 07:30N 33°46' W 118°13'0 0.0
2018-Feb-01 07:00N 33°46' W 118°13'0 0.0
2018-Feb-01 06:30N 33°46' W 118°13'0 0.0
2018-Feb-01 06:00N 33°46' W 118°13'0 0.0
2018-Feb-01 05:30N 33°46' W 118°13'0 0.0
2018-Feb-01 05:00N 33°46' W 118°13'0 0.0
2018-Feb-01 04:30N 33°46' W 118°13'0 0.0
2018-Feb-01 03:59N 33°46' W 118°13'0 0.0
2018-Feb-01 02:59N 33°46' W 118°13'0 0.0
2018-Feb-01 02:30N 33°46' W 118°13'0 0.0
2018-Feb-01 02:00N 33°46' W 118°13'0 0.0
2018-Feb-01 01:30N 33°46' W 118°13'0 0.0
2018-Feb-01 01:00N 33°46' W 118°13'0 0.0
2018-Feb-01 00:30N 33°46' W 118°13'0 0.0
2018-Feb-01 00:00N 33°46' W 118°13'0 0.0
2018-Jan-31 22:59N 33°46' W 118°13'0 0.0
2018-Jan-31 22:31N 33°46' W 118°13'4 2.7
2018-Jan-31 21:00N 33°44' W 118°09'0 0.1
2018-Jan-31 20:30N 33°44' W 118°09'0 0.1
2018-Jan-31 20:00N 33°44' W 118°09'0 0.1
2018-Jan-31 19:30N 33°44' W 118°09'0 0.2
2018-Jan-31 19:00N 33°44' W 118°09'0 0.2
2018-Jan-31 18:24N 33°44' W 118°09'3 8.2
2018-Jan-31 18:00N 33°44' W 118°13'2 3.8
2018-Jan-31 17:30N 33°46' W 118°13'  

Dump ship's entire track history